createdAt,value
2018-08-03T00:00:07.633Z,58.12
2018-08-03T00:01:12.392Z,58.35
2018-08-03T00:02:17.150Z,58.28
2018-08-03T00:03:21.859Z,58.19
2018-08-03T00:04:26.557Z,58.24
2018-08-03T00:05:32.041Z,57.88
2018-08-03T00:06:38.850Z,57.80
2018-08-03T00:07:45.443Z,57.75
2018-08-03T00:08:50.275Z,57.82
2018-08-03T00:09:56.084Z,59.35
2018-08-03T00:11:00.828Z,58.57
2018-08-03T00:12:07.992Z,58.82
2018-08-03T00:13:13.540Z,58.90
2018-08-03T00:14:18.169Z,58.69
2018-08-03T00:15:25.168Z,58.96
2018-08-03T00:16:30.877Z,59.15
2018-08-03T00:17:35.517Z,59.28
2018-08-03T00:18:40.147Z,59.75
2018-08-03T00:19:45.192Z,59.72
2018-08-03T00:20:49.824Z,59.74
2018-08-03T00:21:54.950Z,59.74
2018-08-03T00:23:01.604Z,59.86
2018-08-03T00:24:06.646Z,60.36
2018-08-03T00:25:12.847Z,60.46
2018-08-03T00:26:20.325Z,60.64
2018-08-03T00:27:25.082Z,60.63
2018-08-03T00:28:31.830Z,60.76
2018-08-03T00:29:36.361Z,60.95
2018-08-03T00:30:41.579Z,61.20
2018-08-03T00:31:46.153Z,61.07
2018-08-03T00:32:51.123Z,61.26
2018-08-03T00:33:55.673Z,61.46
2018-08-03T00:35:00.279Z,61.51
2018-08-03T00:36:05.087Z,61.83
2018-08-03T00:37:10.669Z,61.78
2018-08-03T00:38:15.928Z,61.76
2018-08-03T00:39:20.753Z,61.66
2018-08-03T00:40:25.823Z,61.76
2018-08-03T00:41:30.449Z,61.94
2018-08-03T00:42:35.316Z,61.84
2018-08-03T00:43:39.883Z,61.66
2018-08-03T00:44:45.475Z,61.67
2018-08-03T00:45:50.460Z,61.71
2018-08-03T00:46:55.212Z,61.75
2018-08-03T00:48:00.732Z,61.64
2018-08-03T00:49:05.330Z,61.64
2018-08-03T00:50:09.920Z,61.95
2018-08-03T00:51:15.200Z,61.79
2018-08-03T00:52:21.263Z,62.05
2018-08-03T00:53:26.146Z,62.25
2018-08-03T00:54:30.956Z,62.26
2018-08-03T00:55:36.783Z,62.41
2018-08-03T00:56:41.429Z,62.11
2018-08-03T00:57:46.459Z,62.38
2018-08-03T00:58:52.361Z,62.34
2018-08-03T00:59:56.994Z,62.35
2018-08-03T01:01:01.674Z,62.13
2018-08-03T01:02:06.386Z,62.08
2018-08-03T01:03:11.035Z,62.35
2018-08-03T01:04:16.564Z,62.34
2018-08-03T01:05:21.556Z,62.54
2018-08-03T01:06:26.267Z,62.74
2018-08-03T01:07:30.875Z,62.67
2018-08-03T01:08:35.483Z,62.89
2018-08-03T01:09:40.639Z,63.06
2018-08-03T01:10:45.670Z,63.25
2018-08-03T01:11:50.548Z,63.59
2018-08-03T01:12:55.268Z,63.62
2018-08-03T01:13:59.867Z,63.83
2018-08-03T01:15:04.614Z,63.84
2018-08-03T01:16:09.168Z,63.68
2018-08-03T01:17:13.809Z,63.60
2018-08-03T01:18:18.719Z,63.81
2018-08-03T01:19:24.013Z,63.68
2018-08-03T01:20:28.642Z,63.83
2018-08-03T01:21:33.349Z,64.05
2018-08-03T01:22:38.005Z,64.16
2018-08-03T01:23:42.611Z,64.51
2018-08-03T01:24:48.073Z,64.69
2018-08-03T01:25:53.308Z,64.85
2018-08-03T01:26:57.867Z,64.69
2018-08-03T01:28:02.432Z,64.65
2018-08-03T01:29:07.029Z,64.92
2018-08-03T01:30:11.617Z,64.98
2018-08-03T01:31:16.498Z,65.03
2018-08-03T01:32:21.058Z,65.62
2018-08-03T01:33:25.715Z,65.50
2018-08-03T01:34:31.234Z,65.40
2018-08-03T01:35:35.783Z,65.56
2018-08-03T01:36:40.365Z,66.12
2018-08-03T01:37:46.600Z,66.10
2018-08-03T01:38:51.256Z,66.29
2018-08-03T01:39:55.979Z,66.43
2018-08-03T01:41:00.709Z,66.95
2018-08-03T01:42:05.788Z,66.97
2018-08-03T01:43:11.055Z,66.93
2018-08-03T01:44:16.023Z,67.07
2018-08-03T01:45:20.633Z,66.83
2018-08-03T01:46:25.422Z,66.63
2018-08-03T01:47:30.041Z,66.24
2018-08-03T01:48:35.537Z,66.55
2018-08-03T01:49:40.985Z,66.65
2018-08-03T01:50:45.908Z,66.39
2018-08-03T01:51:50.763Z,66.52
2018-08-03T01:52:55.420Z,66.90
2018-08-03T01:54:01.387Z,67.08
2018-08-03T01:55:06.071Z,67.05
2018-08-03T01:56:10.782Z,66.70
2018-08-03T01:57:16.070Z,66.76
2018-08-03T01:58:20.794Z,66.93
2018-08-03T01:59:25.821Z,67.31
2018-08-03T02:00:30.607Z,67.29
2018-08-03T02:01:35.387Z,66.99
2018-08-03T02:02:40.181Z,67.34
2018-08-03T02:03:46.164Z,67.60
2018-08-03T02:04:50.937Z,67.53
2018-08-03T02:05:56.212Z,67.63
2018-08-03T02:07:02.480Z,67.43
2018-08-03T02:08:08.183Z,67.01
2018-08-03T02:09:13.713Z,67.54
2018-08-03T02:10:19.612Z,67.43
2018-08-03T02:11:24.689Z,67.66
2018-08-03T02:12:29.600Z,67.65
2018-08-03T02:13:35.567Z,68.11
2018-08-03T02:14:40.878Z,68.11
2018-08-03T02:15:45.667Z,68.29
2018-08-03T02:16:50.734Z,68.24
2018-08-03T02:17:56.427Z,68.50
2018-08-03T02:19:01.452Z,68.47
2018-08-03T02:20:07.755Z,68.74
2018-08-03T02:21:13.373Z,68.52
2018-08-03T02:22:18.965Z,68.32
2018-08-03T02:23:24.188Z,68.79
2018-08-03T02:24:29.051Z,68.56
2018-08-03T02:26:44.810Z,68.82
2018-08-03T02:27:49.792Z,68.37
2018-08-03T02:28:54.675Z,68.34
2018-08-03T02:29:59.848Z,68.80
2018-08-03T02:31:04.700Z,68.69
2018-08-03T02:32:09.575Z,68.73
2018-08-03T02:33:15.072Z,68.59
2018-08-03T02:34:19.830Z,68.41
2018-08-03T02:35:24.640Z,68.93
2018-08-03T02:36:29.676Z,68.93
2018-08-03T02:37:34.416Z,69.51
2018-08-03T02:38:39.603Z,69.58
2018-08-03T02:39:45.336Z,70.26
2018-08-03T02:40:50.187Z,69.87
2018-08-03T02:41:54.905Z,70.10
2018-08-03T02:42:59.965Z,69.90
2018-08-03T02:44:05.202Z,70.40
2018-08-03T02:45:10.776Z,69.75
2018-08-03T02:46:15.515Z,70.10
2018-08-03T02:47:20.275Z,69.67
2018-08-03T02:48:25.000Z,69.46
2018-08-03T02:49:30.150Z,69.55
2018-08-03T02:50:35.516Z,70.17
2018-08-03T02:51:40.378Z,69.98
2018-08-03T02:52:45.717Z,69.43
2018-08-03T02:53:50.350Z,69.55
2018-08-03T02:54:55.098Z,70.38
2018-08-03T02:56:00.019Z,70.66
2018-08-03T02:57:05.246Z,70.66
2018-08-03T02:58:09.975Z,70.53
2018-08-03T02:59:14.639Z,71.54
2018-08-03T03:00:19.382Z,71.75
2018-08-03T03:01:24.762Z,71.20
2018-08-03T03:02:29.685Z,71.67
2018-08-03T03:03:34.352Z,71.72
2018-08-03T03:04:38.972Z,71.58
2018-08-03T03:05:43.674Z,71.65
2018-08-03T03:06:48.278Z,71.53
2018-08-03T03:07:53.209Z,71.21
2018-08-03T03:08:58.239Z,71.08
2018-08-03T03:10:03.476Z,70.63
2018-08-03T03:11:08.664Z,70.58
2018-08-03T03:12:13.271Z,70.25
2018-08-03T03:13:17.840Z,70.24
2018-08-03T03:14:22.448Z,70.13
2018-08-03T03:15:27.568Z,70.33
2018-08-03T03:16:32.200Z,70.49
2018-08-03T03:17:36.817Z,70.57
2018-08-03T03:18:41.395Z,71.28
2018-08-03T03:19:46.089Z,71.30
2018-08-03T03:20:50.682Z,71.39
2018-08-03T03:21:55.616Z,70.72
2018-08-03T03:23:00.227Z,70.77
2018-08-03T03:24:06.098Z,70.86
2018-08-03T03:25:10.728Z,70.63
2018-08-03T03:26:16.535Z,70.59
2018-08-03T03:27:22.084Z,70.26
2018-08-03T03:28:27.028Z,70.78
2018-08-03T03:29:31.668Z,70.09
2018-08-03T03:30:36.299Z,70.43
2018-08-03T03:31:41.657Z,70.36
2018-08-03T03:32:46.330Z,70.15
2018-08-03T03:33:51.091Z,70.35
2018-08-03T03:34:56.027Z,70.80
2018-08-03T03:50:18.823Z,72.07
2018-08-03T03:51:23.550Z,72.57
2018-08-03T03:52:28.317Z,72.11
2018-08-03T03:53:33.118Z,72.03
2018-08-03T03:54:37.731Z,72.56
2018-08-03T03:55:42.793Z,72.66
2018-08-03T03:56:47.547Z,72.12
2018-08-03T03:57:52.180Z,72.69
2018-08-03T03:58:56.806Z,72.58
2018-08-03T04:00:01.534Z,72.35
2018-08-03T04:01:06.374Z,72.39
2018-08-03T04:02:11.262Z,72.76
2018-08-03T04:03:15.834Z,72.89
2018-08-03T04:04:20.538Z,72.77
2018-08-03T04:05:25.151Z,73.08
2018-08-03T04:06:29.755Z,72.85
2018-08-03T04:07:34.403Z,72.75
2018-08-03T04:08:39.297Z,72.43
2018-08-03T04:09:45.736Z,72.13
2018-08-03T04:10:50.366Z,71.99
2018-08-03T04:11:55.048Z,71.97
2018-08-03T04:12:59.667Z,72.19
2018-08-03T04:14:05.012Z,72.75
2018-08-03T04:15:10.346Z,72.52
2018-08-03T04:16:15.097Z,72.50
2018-08-03T04:17:20.655Z,72.12
2018-08-03T04:18:25.419Z,72.67
2018-08-03T04:19:30.991Z,72.55
2018-08-03T04:20:35.731Z,72.04
2018-08-03T04:21:41.351Z,72.13
2018-08-03T04:22:46.382Z,72.71
2018-08-03T04:23:51.126Z,72.06
2018-08-03T04:24:56.052Z,72.77
2018-08-03T04:26:00.806Z,72.37
2018-08-03T04:27:06.717Z,72.12
2018-08-03T04:28:11.622Z,72.06
2018-08-03T04:29:16.220Z,72.44
2018-08-03T04:30:20.827Z,72.63
2018-08-03T04:31:25.450Z,72.65
2018-08-03T04:32:31.366Z,72.60
2018-08-03T04:33:35.993Z,71.98
2018-08-03T04:34:41.214Z,72.65
2018-08-03T04:35:49.526Z,72.83
2018-08-03T04:36:54.215Z,72.71
2018-08-03T04:37:58.884Z,72.83
2018-08-03T04:39:03.940Z,72.49
2018-08-03T04:40:08.573Z,72.29
2018-08-03T04:41:13.495Z,71.97
2018-08-03T04:42:18.179Z,72.42
2018-08-03T04:43:22.771Z,72.25
2018-08-03T04:44:27.449Z,72.40
2018-08-03T04:45:32.060Z,72.64
2018-08-03T04:46:36.678Z,72.16
2018-08-03T04:47:41.610Z,72.80
2018-08-03T04:48:46.281Z,72.76
2018-08-03T04:49:51.000Z,72.34
2018-08-03T04:50:55.646Z,72.65
2018-08-03T04:52:00.280Z,72.59
2018-08-03T04:53:04.891Z,72.62
2018-08-03T04:54:10.345Z,73.31
2018-08-03T04:55:14.958Z,73.06
2018-08-03T04:56:21.016Z,73.55
2018-08-03T04:57:26.659Z,73.12
2018-08-03T04:58:31.717Z,73.30
2018-08-03T04:59:37.016Z,72.49
2018-08-03T05:00:42.851Z,72.74
2018-08-03T05:01:48.461Z,72.90
2018-08-03T05:02:53.262Z,72.81
2018-08-03T05:03:59.733Z,73.22
2018-08-03T05:05:05.506Z,72.87
2018-08-03T05:06:10.691Z,73.62
2018-08-03T05:07:17.030Z,73.33
2018-08-03T05:08:22.100Z,73.96
2018-08-03T05:09:27.866Z,74.07
2018-08-03T05:10:32.670Z,73.81
2018-08-03T05:11:37.474Z,73.44
2018-08-03T05:12:44.133Z,73.34
2018-08-03T05:13:49.695Z,73.69
2018-08-03T05:14:54.458Z,73.25
2018-08-03T05:15:59.180Z,73.02
2018-08-03T05:17:03.953Z,73.44
2018-08-03T05:18:09.026Z,73.13
2018-08-03T05:19:13.769Z,73.17
2018-08-03T05:20:18.768Z,73.12
2018-08-03T05:21:23.514Z,73.00
2018-08-03T05:22:28.237Z,72.85
2018-08-03T05:23:33.984Z,72.07
2018-08-03T05:24:38.723Z,72.62
2018-08-03T05:25:43.462Z,71.86
2018-08-03T05:26:48.459Z,71.80
2018-08-03T05:27:53.169Z,71.88
2018-08-03T05:28:59.860Z,71.58
2018-08-03T05:30:04.771Z,71.41
2018-08-03T05:31:09.607Z,71.41
2018-08-03T05:32:17.319Z,71.31
2018-08-03T05:33:22.402Z,71.45
2018-08-03T05:34:27.143Z,71.68
2018-08-03T05:35:31.919Z,71.81
2018-08-03T05:36:36.707Z,72.29
2018-08-03T05:37:41.480Z,72.11
2018-08-03T05:38:46.217Z,71.86
2018-08-03T05:39:51.311Z,71.66
2018-08-03T05:40:56.032Z,72.07
2018-08-03T05:42:00.749Z,71.61
2018-08-03T05:43:05.490Z,71.84
2018-08-03T05:44:10.284Z,71.59
2018-08-03T05:45:15.819Z,71.88
2018-08-03T05:46:25.349Z,71.36
2018-08-03T05:47:31.600Z,71.83
2018-08-03T05:48:37.582Z,71.31
2018-08-03T05:49:42.700Z,71.48
2018-08-03T05:50:48.252Z,71.18
2018-08-03T05:51:53.325Z,70.94
2018-08-03T05:52:58.802Z,70.81
2018-08-03T05:54:03.612Z,70.82
2018-08-03T05:55:10.595Z,70.98
2018-08-03T05:56:16.130Z,70.51
2018-08-03T05:57:21.382Z,70.79
2018-08-03T05:58:26.143Z,70.64
2018-08-03T05:59:30.926Z,70.97
2018-08-03T06:00:35.650Z,70.63
2018-08-03T06:01:42.389Z,70.85
2018-08-03T06:02:48.271Z,70.52
2018-08-03T06:03:53.200Z,70.27
2018-08-03T06:04:58.250Z,70.56
2018-08-03T06:06:03.086Z,70.29
2018-08-03T06:07:07.808Z,70.59
2018-08-03T06:08:12.634Z,70.27
2018-08-03T06:09:17.502Z,69.86
2018-08-03T06:10:22.283Z,69.69
2018-08-03T06:11:27.048Z,69.55
2018-08-03T06:12:31.956Z,69.26
2018-08-03T06:13:37.064Z,69.07
2018-08-03T06:14:41.815Z,68.87
2018-08-03T06:15:46.557Z,69.10
2018-08-03T06:16:51.367Z,68.71
2018-08-03T06:17:56.284Z,68.95
2018-08-03T06:19:01.839Z,68.50
2018-08-03T06:20:07.450Z,68.57
2018-08-03T06:21:12.250Z,68.37
2018-08-03T06:22:17.067Z,68.29
2018-08-03T06:23:22.380Z,68.46
2018-08-03T06:24:27.939Z,68.52
2018-08-03T06:25:32.677Z,68.42
2018-08-03T06:26:37.472Z,68.31
2018-08-03T06:27:43.055Z,68.31
2018-08-03T06:28:48.990Z,68.06
2018-08-03T06:29:55.078Z,68.23
2018-08-03T06:31:00.486Z,67.93
2018-08-03T06:32:05.249Z,68.05
2018-08-03T06:33:09.971Z,68.17
2018-08-03T06:34:14.778Z,67.96
2018-08-03T06:35:19.495Z,67.74
2018-08-03T06:36:26.147Z,67.94
2018-08-03T06:37:30.928Z,67.89
2018-08-03T06:38:35.738Z,67.78
2018-08-03T06:39:40.455Z,67.63
2018-08-03T06:40:45.242Z,67.28
2018-08-03T06:41:50.194Z,67.34
2018-08-03T06:42:55.240Z,67.28
2018-08-03T06:44:00.036Z,66.77
2018-08-03T06:45:04.818Z,66.68
2018-08-03T06:46:09.645Z,66.57
2018-08-03T06:47:14.461Z,66.91
2018-08-03T06:48:19.362Z,66.82
2018-08-03T06:49:26.168Z,66.77
2018-08-03T06:50:30.884Z,66.24
2018-08-03T06:51:36.626Z,65.87
2018-08-03T06:52:41.628Z,65.96
2018-08-03T06:53:48.103Z,66.14
2018-08-03T06:54:53.062Z,65.59
2018-08-03T06:55:58.133Z,65.31
2018-08-03T06:57:02.914Z,64.99
2018-08-03T06:58:07.649Z,64.74
2018-08-03T06:59:13.272Z,64.62
2018-08-03T07:00:18.073Z,64.32
2018-08-03T07:01:23.619Z,64.59
2018-08-03T07:02:29.125Z,64.13
2018-08-03T07:03:34.872Z,64.13
2018-08-03T07:04:39.796Z,63.59
2018-08-03T07:05:44.619Z,63.32
2018-08-03T07:06:49.362Z,62.88
2018-08-03T07:07:57.250Z,62.47
2018-08-03T07:09:02.514Z,62.58
2018-08-03T07:10:08.253Z,61.75
2018-08-03T07:11:14.369Z,61.43
2018-08-03T07:12:19.021Z,61.18
2018-08-03T07:13:23.718Z,61.47
2018-08-03T07:14:28.892Z,61.46
2018-08-03T07:15:34.027Z,61.37
2018-08-03T07:16:38.696Z,60.87
2018-08-03T07:17:43.334Z,61.11
2018-08-03T07:18:49.498Z,61.09
2018-08-03T07:19:54.956Z,60.50
2018-08-03T07:21:00.705Z,60.76
2018-08-03T07:22:05.684Z,59.94
2018-08-03T07:23:10.375Z,60.18
2018-08-03T07:24:16.650Z,59.91
2018-08-03T07:25:22.324Z,59.64
2018-08-03T07:26:27.222Z,59.39
2018-08-03T07:27:32.840Z,58.81
2018-08-03T07:28:37.749Z,58.69
2018-08-03T07:29:42.826Z,57.97
2018-08-03T07:30:47.511Z,57.93
2018-08-03T07:31:52.173Z,58.14
2018-08-03T07:32:57.774Z,58.21
2018-08-03T07:34:02.432Z,57.36
2018-08-03T07:35:07.924Z,57.59
2018-08-03T07:36:12.645Z,56.74
2018-08-03T07:37:17.680Z,56.99
2018-08-03T07:38:22.412Z,57.08
2018-08-03T07:39:27.540Z,56.69
2018-08-03T07:40:34.116Z,56.69
2018-08-03T07:41:38.783Z,56.25
2018-08-03T07:42:43.563Z,56.00
2018-08-03T07:43:50.092Z,55.77
2018-08-03T07:44:54.828Z,55.55
2018-08-03T07:45:59.551Z,55.48
2018-08-03T07:47:04.234Z,55.19
2018-08-03T07:48:11.771Z,55.04
2018-08-03T07:49:17.421Z,54.56
2018-08-03T07:50:22.382Z,54.44
2018-08-03T07:51:27.141Z,54.53
2018-08-03T07:52:33.204Z,54.05
2018-08-03T07:53:38.390Z,53.33
2018-08-03T07:54:43.697Z,53.74
2018-08-03T07:55:48.648Z,53.72
2018-08-03T07:56:54.181Z,53.60
2018-08-03T07:57:58.902Z,53.35
2018-08-03T07:59:04.501Z,52.99
2018-08-03T08:00:09.270Z,52.34
2018-08-03T08:01:14.001Z,52.09
2018-08-03T08:02:18.681Z,52.22
2018-08-03T08:03:23.362Z,51.62
2018-08-03T08:04:29.435Z,51.60
2018-08-03T08:05:34.572Z,51.50
2018-08-03T08:06:41.772Z,51.55
2018-08-03T08:07:47.430Z,51.41
2018-08-03T08:08:52.540Z,51.35
2018-08-03T08:09:57.906Z,51.09
2018-08-03T08:11:03.184Z,50.88
2018-08-03T08:12:08.375Z,50.43
2018-08-03T08:13:16.898Z,50.47
2018-08-03T08:14:21.719Z,49.93
2018-08-03T08:15:26.585Z,50.38
2018-08-03T08:16:31.399Z,50.54
2018-08-03T08:17:38.636Z,50.41
2018-08-03T08:18:46.671Z,50.21
2018-08-03T08:19:53.136Z,50.11
2018-08-03T08:20:57.863Z,49.81
2018-08-03T08:22:02.716Z,49.00
2018-08-03T08:23:07.572Z,48.85
2018-08-03T08:24:13.429Z,48.59
2018-08-03T08:25:21.378Z,49.03
2018-08-03T08:26:26.692Z,48.34
2018-08-03T08:27:32.326Z,48.45
2018-08-03T08:28:37.615Z,48.18
2018-08-03T08:29:42.241Z,47.78
2018-08-03T08:30:50.739Z,47.27
2018-08-03T08:31:57.696Z,47.09
2018-08-03T08:33:03.157Z,47.17
2018-08-03T08:34:07.984Z,47.41
2018-08-03T08:35:12.772Z,46.80
2018-08-03T08:36:19.042Z,46.68
2018-08-03T08:37:23.991Z,45.49
2018-08-03T08:38:30.039Z,45.40
2018-08-03T08:39:34.804Z,43.97
2018-08-03T08:40:39.460Z,44.13
2018-08-03T08:41:44.332Z,43.46
2018-08-03T08:42:49.855Z,43.72
2018-08-03T08:43:55.866Z,42.77
2018-08-03T08:45:00.706Z,43.25
2018-08-03T08:46:06.260Z,43.32
2018-08-03T08:47:15.438Z,43.29
2018-08-03T08:48:20.258Z,42.94
2018-08-03T08:49:28.730Z,42.46
2018-08-03T08:50:35.596Z,42.35
2018-08-03T08:51:40.671Z,42.23
2018-08-03T08:52:49.375Z,42.02
2018-08-03T08:53:54.331Z,41.92
2018-08-03T08:54:59.048Z,41.72
2018-08-03T08:56:03.719Z,41.65
2018-08-03T08:57:12.478Z,41.46
2018-08-03T08:58:17.127Z,41.38
2018-08-03T09:00:36.852Z,40.36
2018-08-03T09:01:41.553Z,39.76
2018-08-03T09:02:49.466Z,39.63
2018-08-03T09:03:56.031Z,39.21
2018-08-03T09:05:01.426Z,39.39
2018-08-03T09:06:06.342Z,39.36
2018-08-03T09:08:23.263Z,38.20
2018-08-03T09:09:30.308Z,38.54
2018-08-03T09:10:35.275Z,38.16
2018-08-03T09:11:40.457Z,37.87
2018-08-03T09:14:11.763Z,84.88
2018-08-03T09:15:18.409Z,36.94
2018-08-03T09:16:24.959Z,37.11
2018-08-03T09:17:31.277Z,37.07
2018-08-03T09:18:36.856Z,37.28
2018-08-03T09:19:42.103Z,37.47
2018-08-03T09:20:47.962Z,36.91
2018-08-03T09:21:54.472Z,36.05
2018-08-03T09:23:00.056Z,36.24
2018-08-03T09:24:04.689Z,35.78
2018-08-03T09:25:09.711Z,35.77
2018-08-03T09:26:14.991Z,35.79
2018-08-03T09:27:22.882Z,35.92
2018-08-03T09:28:28.830Z,35.46
2018-08-03T09:29:33.597Z,34.90
2018-08-03T09:30:39.972Z,35.39
2018-08-03T09:31:44.812Z,34.95
2018-08-03T09:32:50.857Z,34.51
2018-08-03T09:33:57.081Z,34.61
2018-08-03T09:35:08.379Z,34.41
2018-08-03T09:36:13.683Z,34.50
2018-08-03T09:37:20.292Z,34.42
2018-08-03T09:38:26.972Z,34.86
2018-08-03T09:39:32.720Z,34.64
2018-08-03T09:40:37.491Z,34.79
2018-08-03T09:41:45.076Z,34.29
2018-08-03T09:42:49.921Z,34.34
2018-08-03T09:43:58.051Z,34.46
2018-08-03T09:45:03.312Z,34.27
2018-08-03T09:46:09.452Z,34.43
2018-08-03T09:47:14.215Z,34.47
2018-08-03T09:48:19.282Z,34.58
2018-08-03T10:05:49.316Z,31.91
2018-08-03T10:06:54.930Z,32.18
2018-08-03T10:07:59.893Z,32.16
2018-08-03T10:09:05.491Z,31.90
2018-08-03T10:10:12.152Z,32.01
2018-08-03T10:11:18.115Z,31.60
2018-08-03T10:12:26.377Z,32.01
2018-08-03T10:13:32.880Z,32.24
2018-08-03T10:14:42.095Z,32.60
2018-08-03T10:15:49.739Z,32.89
2018-08-03T10:16:57.222Z,33.02
2018-08-03T10:18:04.283Z,32.71
2018-08-03T10:19:09.339Z,32.57
2018-08-03T10:20:15.243Z,32.69
2018-08-03T10:21:20.073Z,32.55
2018-08-03T10:22:26.702Z,32.50
2018-08-03T10:23:36.417Z,32.49
2018-08-03T10:24:43.099Z,32.05
2018-08-03T10:25:49.647Z,32.48
2018-08-03T10:26:55.785Z,32.27
2018-08-03T10:28:02.958Z,32.31
2018-08-03T10:29:08.396Z,32.17
2018-08-03T10:30:13.473Z,31.63
2018-08-03T10:31:18.244Z,32.04
2018-08-03T10:37:53.864Z,32.37
2018-08-03T10:38:59.432Z,31.92
2018-08-03T10:40:04.793Z,32.31
2018-08-03T10:41:11.074Z,31.68
2018-08-03T10:42:18.400Z,31.99
2018-08-03T10:43:23.972Z,31.79
2018-08-03T10:44:30.842Z,31.84
2018-08-03T10:45:36.215Z,32.04
2018-08-03T10:46:40.890Z,31.68
2018-08-03T10:47:46.787Z,31.71
2018-08-03T10:48:51.555Z,31.65
2018-08-03T10:49:58.032Z,31.38
2018-08-03T10:51:04.146Z,31.72
2018-08-03T10:52:09.452Z,31.58
2018-08-03T10:53:16.316Z,31.15
2018-08-03T10:54:21.743Z,30.92
2018-08-03T10:55:26.659Z,30.98
2018-08-03T10:56:31.503Z,30.53
2018-08-03T10:57:36.485Z,30.51
2018-08-03T10:58:41.228Z,30.11
2018-08-03T10:59:47.544Z,30.20
2018-08-03T11:00:55.254Z,30.01
2018-08-03T11:02:06.375Z,30.06
2018-08-03T11:03:13.423Z,30.18
2018-08-03T11:04:18.787Z,29.83
2018-08-03T11:05:24.378Z,29.81
2018-08-03T11:06:29.154Z,29.92
2018-08-03T11:07:33.950Z,29.80
2018-08-03T11:08:38.588Z,29.91
2018-08-03T11:09:43.468Z,30.36
2018-08-03T11:10:48.919Z,30.28
2018-08-03T11:11:54.367Z,30.05
2018-08-03T11:12:59.845Z,30.12
2018-08-03T11:14:05.149Z,29.41
2018-08-03T11:15:11.014Z,29.17
2018-08-03T11:16:15.662Z,29.02
2018-08-03T11:17:22.676Z,29.08
2018-08-03T11:18:27.366Z,29.58
2018-08-03T11:19:36.105Z,29.57
2018-08-03T11:20:40.770Z,28.95
2018-08-03T11:21:45.547Z,28.66
2018-08-03T11:22:50.595Z,28.53
2018-08-03T11:23:57.247Z,28.24
2018-08-03T11:25:04.687Z,28.07
2018-08-03T11:26:09.564Z,27.82
2018-08-03T11:27:15.366Z,27.99
2018-08-03T11:28:20.226Z,27.96
2018-08-03T11:29:27.827Z,27.43
2018-08-03T11:30:34.806Z,27.32
2018-08-03T11:31:40.435Z,27.23
2018-08-03T11:32:45.919Z,26.65
2018-08-03T11:33:51.554Z,26.53
2018-08-03T11:34:57.186Z,26.52
2018-08-03T11:36:03.745Z,26.10
2018-08-03T11:37:10.717Z,26.52
2018-08-03T11:38:16.220Z,26.48
2018-08-03T11:39:20.998Z,26.17
2018-08-03T11:40:25.754Z,26.32
2018-08-03T11:41:31.227Z,26.38
2018-08-03T11:42:37.838Z,26.17
2018-08-03T11:43:43.106Z,26.14
2018-08-03T11:44:52.643Z,26.04
2018-08-03T11:45:59.229Z,26.37
2018-08-03T11:47:03.975Z,26.71
2018-08-03T11:48:09.761Z,26.68
2018-08-03T11:49:18.939Z,27.03
2018-08-03T11:50:26.761Z,26.85
2018-08-03T11:51:37.123Z,26.49
2018-08-03T11:52:42.748Z,25.95
2018-08-03T11:53:49.347Z,24.87
2018-08-03T11:54:54.416Z,24.68
2018-08-03T11:55:59.120Z,24.64
2018-08-03T11:57:05.464Z,24.47
2018-08-03T11:58:10.256Z,24.31
2018-08-03T11:59:16.598Z,24.29
2018-08-03T12:00:21.906Z,24.20
2018-08-03T12:01:27.381Z,24.46
2018-08-03T12:02:32.197Z,24.11
2018-08-03T12:03:37.266Z,23.76
2018-08-03T12:04:42.394Z,22.99
2018-08-03T12:05:50.927Z,22.89
2018-08-03T12:06:56.496Z,23.41
2018-08-03T12:08:02.315Z,23.09
2018-08-03T12:09:09.589Z,22.64
2018-08-03T12:10:14.660Z,22.12
2018-08-03T12:11:23.543Z,22.05
2018-08-03T12:12:28.339Z,22.32
2018-08-03T12:13:35.376Z,21.81
2018-08-03T12:14:41.281Z,21.51
2018-08-03T12:15:47.454Z,22.62
2018-08-03T12:16:53.407Z,22.87
2018-08-03T12:17:59.024Z,22.36
2018-08-03T12:19:04.666Z,22.32
2018-08-03T12:20:15.277Z,22.87
2018-08-03T12:21:20.653Z,22.63
2018-08-03T12:22:26.717Z,22.52
2018-08-03T12:23:35.263Z,23.12
2018-08-03T12:24:43.016Z,23.51
2018-08-03T12:25:48.579Z,24.18
2018-08-03T12:26:53.381Z,24.74
2018-08-03T12:27:59.853Z,25.15
2018-08-03T12:29:05.063Z,24.90
2018-08-03T12:30:10.478Z,25.26
2018-08-03T12:31:16.801Z,25.58
2018-08-03T12:32:21.566Z,25.56
2018-08-03T12:33:27.206Z,25.78
2018-08-03T12:34:35.376Z,25.88
2018-08-03T12:35:41.388Z,26.13
2018-08-03T12:36:46.187Z,25.94
2018-08-03T12:37:53.181Z,26.16
2018-08-03T12:38:58.877Z,26.07
2018-08-03T12:40:07.866Z,26.35
2018-08-03T12:41:14.146Z,25.93
2018-08-03T12:42:19.490Z,26.33
2018-08-03T12:43:24.275Z,26.24
2018-08-03T12:44:33.056Z,26.74
2018-08-03T12:45:38.471Z,27.03
2018-08-03T12:46:45.839Z,27.19
2018-08-03T12:47:52.760Z,27.35
2018-08-03T12:48:59.832Z,27.19
2018-08-03T12:50:07.500Z,26.81
2018-08-03T12:51:14.265Z,26.75
2018-08-03T12:52:18.920Z,27.32
2018-08-03T12:53:23.951Z,26.80
2018-08-03T12:54:29.702Z,26.79
2018-08-03T12:55:35.838Z,26.13
2018-08-03T12:56:42.903Z,26.09
2018-08-03T12:57:48.241Z,24.96
2018-08-03T12:58:58.199Z,24.25
2018-08-03T13:00:02.850Z,23.48
2018-08-03T13:01:09.684Z,22.88
2018-08-03T13:02:14.456Z,22.40
2018-08-03T13:03:21.272Z,21.77
2018-08-03T13:04:26.927Z,21.46
2018-08-03T13:05:31.979Z,21.51
2018-08-03T13:06:36.673Z,21.29
2018-08-03T13:07:41.532Z,22.00
2018-08-03T13:08:46.273Z,21.84
2018-08-03T13:09:52.367Z,20.87
2018-08-03T13:10:59.922Z,21.80
2018-08-03T13:12:07.518Z,22.69
2018-08-03T13:13:13.655Z,23.26
2018-08-03T13:14:18.442Z,23.11
2018-08-03T13:15:26.293Z,22.51
2018-08-03T13:16:31.418Z,22.68
2018-08-03T13:17:37.405Z,22.36
2018-08-03T13:18:42.164Z,22.49
2018-08-03T13:19:46.983Z,22.01
2018-08-03T13:20:52.519Z,22.05
2018-08-03T13:21:57.604Z,22.28
2018-08-03T13:23:04.811Z,21.98
2018-08-03T13:24:11.040Z,22.45
2018-08-03T13:25:15.809Z,23.09
2018-08-03T13:26:21.364Z,23.23
2018-08-03T13:27:28.692Z,22.98
2018-08-03T13:28:34.240Z,23.58
2018-08-03T13:29:39.366Z,24.10
2018-08-03T13:30:46.440Z,23.77
2018-08-03T13:31:53.374Z,23.69
2018-08-03T13:33:00.524Z,22.82
2018-08-03T13:34:05.521Z,22.77
2018-08-03T13:35:11.261Z,22.95
2018-08-03T13:36:16.671Z,22.95
2018-08-03T13:37:21.499Z,22.30
2018-08-03T13:38:26.211Z,21.60
2018-08-03T13:39:32.932Z,21.13
2018-08-03T13:40:39.344Z,21.22
2018-08-03T13:41:44.986Z,21.01
2018-08-03T13:42:50.592Z,21.40
2018-08-03T13:43:55.536Z,21.62
2018-08-03T13:45:00.364Z,21.44
2018-08-03T13:46:08.179Z,20.85
2018-08-03T13:47:13.183Z,21.01
2018-08-03T13:48:18.336Z,20.47
2018-08-03T13:49:23.194Z,21.02
2018-08-03T13:50:28.068Z,20.89
2018-08-03T13:51:32.792Z,20.81
2018-08-03T13:52:39.728Z,21.01
2018-08-03T13:53:47.312Z,20.17
2018-08-03T13:54:52.616Z,20.38
2018-08-03T13:55:58.581Z,20.12
2018-08-03T13:57:04.380Z,20.10
2018-08-03T13:58:09.112Z,19.39
2018-08-03T13:59:13.887Z,19.20
2018-08-03T14:00:21.676Z,18.91
2018-08-03T14:01:31.455Z,18.54
2018-08-03T14:02:36.178Z,18.87
2018-08-03T14:03:42.258Z,18.69
2018-08-03T14:04:46.989Z,18.54
2018-08-03T14:05:52.398Z,18.20
2018-08-03T14:06:57.011Z,18.11
2018-08-03T14:08:02.138Z,18.11
2018-08-03T14:09:08.054Z,18.38
2018-08-03T14:10:13.275Z,18.37
2018-08-03T14:11:18.703Z,18.39
2018-08-03T14:12:25.664Z,18.48
2018-08-03T14:13:30.395Z,17.96
2018-08-03T14:14:35.472Z,18.07
2018-08-03T14:15:40.219Z,17.75
2018-08-03T14:16:45.797Z,18.73
2018-08-03T14:17:51.607Z,19.53
2018-08-03T14:18:57.368Z,20.00
2018-08-03T14:20:02.604Z,19.61
2018-08-03T14:21:08.284Z,18.62
2018-08-03T14:22:14.254Z,17.77
2018-08-03T14:23:22.012Z,17.57
2018-08-03T14:24:26.950Z,17.69
2018-08-03T14:25:32.348Z,16.68
2018-08-03T14:26:39.145Z,17.35
2018-08-03T14:27:44.145Z,18.64
2018-08-03T14:28:49.619Z,19.79
2018-08-03T14:29:55.318Z,20.39
2018-08-03T14:31:00.367Z,21.16
2018-08-03T14:32:06.016Z,21.53
2018-08-03T14:51:14.768Z,20.32
2018-08-03T14:52:19.595Z,19.97
2018-08-03T14:53:26.636Z,20.48
2018-08-03T14:54:31.374Z,20.07
2018-08-03T14:55:37.833Z,19.76
2018-08-03T14:56:43.464Z,19.38
2018-08-03T14:57:48.315Z,19.95
2018-08-03T14:58:53.202Z,19.54
2018-08-03T14:59:58.096Z,19.61
2018-08-03T15:01:04.733Z,19.77
2018-08-03T15:02:10.768Z,19.31